Time;durP1;ratioP1;P1;durP2;ratioP2;P2;SDS_P1;SDS_P2;PMS_P1;PMS_P2;Temp;Humidity;BMP_temperature;BMP_pressure;BME280_temperature;BME280_humidity;BME280_pressure;Samples;Min_cycle;Max_cycle;Signal;HPM_P1;HPM_P2
2021/01/24 00:01:08;;;;;;;25.23;17.30;;;1.80;99.90;;;;;;5081091;28;20255;-82
2021/01/24 00:03:37;;;;;;;25.33;17.55;;;1.90;99.90;;;;;;5080530;28;20285;-83
2021/01/24 00:06:03;;;;;;;32.55;19.48;;;1.90;99.90;;;;;;5080398;28;20258;-83
2021/01/24 00:08:33;;;;;;;33.13;19.23;;;1.90;99.90;;;;;;5082795;28;20302;-83
2021/01/24 00:10:59;;;;;;;27.00;18.95;;;1.90;99.90;;;;;;5080441;28;20746;-83
2021/01/24 00:13:25;;;;;;;26.48;16.73;;;1.90;99.90;;;;;;5081361;28;20230;-82
2021/01/24 00:15:55;;;;;;;26.50;17.48;;;1.90;99.90;;;;;;5084419;28;20198;-82
2021/01/24 00:18:21;;;;;;;27.13;17.08;;;1.90;99.90;;;;;;5083283;28;20352;-82
2021/01/24 00:20:47;;;;;;;25.60;17.42;;;1.90;99.90;;;;;;5080757;28;20202;-83
2021/01/24 00:23:14;;;;;;;28.20;15.13;;;1.90;99.90;;;;;;5086762;28;20247;-82
2021/01/24 00:25:40;;;;;;;23.52;15.10;;;1.90;99.90;;;;;;5091215;28;20297;-81
2021/01/24 00:28:06;;;;;;;24.63;16.02;;;1.90;99.90;;;;;;5081415;28;20301;-83
2021/01/24 00:30:33;;;;;;;23.60;15.98;;;1.90;99.90;;;;;;5080734;28;20213;-82
2021/01/24 00:33:09;;;;;;;23.77;14.95;;;1.90;99.90;;;;;;5079874;28;20222;-82
2021/01/24 00:35:35;;;;;;;30.13;18.80;;;1.90;99.90;;;;;;5078982;28;20776;-82
2021/01/24 00:38:01;;;;;;;33.55;20.10;;;1.90;99.90;;;;;;5079496;28;20589;-83
2021/01/24 00:40:28;;;;;;;27.05;18.35;;;1.70;99.90;;;;;;5079987;28;20301;-81
2021/01/24 00:42:54;;;;;;;35.30;21.75;;;1.60;99.90;;;;;;5079631;28;20285;-82
2021/01/24 00:45:21;;;;;;;32.83;19.27;;;1.70;99.90;;;;;;5079299;28;20305;-82
2021/01/24 00:47:47;;;;;;;27.45;18.77;;;1.70;99.90;;;;;;5079702;28;20222;-81
2021/01/24 00:50:15;;;;;;;32.63;19.75;;;1.60;99.90;;;;;;5080301;28;20206;-84
2021/01/24 00:52:41;;;;;;;35.60;22.50;;;1.60;99.90;;;;;;5079429;28;20206;-83
2021/01/24 00:55:08;;;;;;;40.85;22.42;;;1.60;99.90;;;;;;5079602;28;20195;-83
2021/01/24 00:57:35;;;;;;;43.63;25.38;;;1.60;99.90;;;;;;5079623;28;20228;-83
2021/01/24 01:00:05;;;;;;;30.98;20.90;;;1.60;99.90;;;;;;5079426;28;20190;-83
2021/01/24 01:02:31;;;;;;;43.72;26.95;;;1.60;99.90;;;;;;5079903;28;20277;-82
2021/01/24 01:04:57;;;;;;;57.28;34.42;;;1.50;99.90;;;;;;5079167;28;20209;-81
2021/01/24 01:07:24;;;;;;;53.92;31.27;;;1.60;99.90;;;;;;5079340;28;20206;-82
2021/01/24 01:09:51;;;;;;;37.80;22.33;;;1.70;99.90;;;;;;5079389;28;20287;-82
2021/01/24 01:12:17;;;;;;;42.38;27.10;;;1.80;99.90;;;;;;5080930;28;20228;-82
2021/01/24 01:14:44;;;;;;;41.80;25.73;;;1.80;99.90;;;;;;5086228;28;20207;-82
2021/01/24 01:17:10;;;;;;;34.33;23.17;;;1.70;99.90;;;;;;5085891;28;20265;-81
2021/01/24 01:19:36;;;;;;;37.70;22.88;;;1.70;99.90;;;;;;5081653;28;20627;-82
2021/01/24 01:22:03;;;;;;;32.30;22.23;;;1.70;99.90;;;;;;5078944;28;20293;-82
2021/01/24 01:24:30;;;;;;;33.67;22.30;;;1.70;99.90;;;;;;5078915;28;20297;-83
2021/01/24 01:26:56;;;;;;;32.67;20.70;;;1.70;99.90;;;;;;5079496;28;20695;-82
2021/01/24 01:29:23;;;;;;;32.80;19.70;;;1.70;99.90;;;;;;5078339;28;20265;-82
2021/01/24 01:31:49;;;;;;;28.23;18.65;;;1.50;99.90;;;;;;5078088;28;20234;-82
2021/01/24 01:34:15;;;;;;;26.95;18.63;;;1.40;99.90;;;;;;5078646;28;20198;-82
2021/01/24 01:36:41;;;;;;;27.90;19.42;;;1.30;99.90;;;;;;5078809;28;20232;-82
2021/01/24 01:39:08;;;;;;;29.58;19.65;;;1.50;99.90;;;;;;5080063;28;20226;-82
2021/01/24 01:41:35;;;;;;;30.65;18.83;;;1.40;99.90;;;;;;5079660;28;20202;-82
2021/01/24 01:44:02;;;;;;;32.95;20.70;;;1.40;99.90;;;;;;5079087;28;20229;-82
2021/01/24 01:46:30;;;;;;;30.77;19.77;;;1.40;99.90;;;;;;5079159;28;20214;-82
2021/01/24 01:48:57;;;;;;;30.08;20.25;;;1.50;99.90;;;;;;5078389;28;20584;-83
2021/01/24 01:51:23;;;;;;;30.05;21.48;;;1.60;99.90;;;;;;5078563;28;20273;-83
2021/01/24 01:53:51;;;;;;;27.48;19.90;;;1.60;99.90;;;;;;5079386;28;20281;-82
2021/01/24 01:56:17;;;;;;;30.85;21.02;;;1.60;99.90;;;;;;5077700;28;20269;-83
2021/01/24 01:58:44;;;;;;;28.63;18.77;;;1.60;99.90;;;;;;5078856;28;20230;-83
2021/01/24 02:01:19;;;;;;;37.08;21.20;;;1.70;99.90;;;;;;5079405;28;20222;-82
2021/01/24 02:03:52;;;;;;;26.50;18.20;;;1.70;99.90;;;;;;5079114;28;20605;-82
2021/01/24 02:06:26;;;;;;;30.30;19.33;;;1.70;99.90;;;;;;5092694;28;20218;-82
2021/01/24 02:09:00;;;;;;;26.45;18.45;;;1.70;99.90;;;;;;5096813;28;20232;-81
2021/01/24 02:11:35;;;;;;;29.05;19.00;;;1.70;99.90;;;;;;5096493;28;20195;-80
2021/01/24 02:14:24;;;;;;;27.02;18.20;;;1.70;99.90;;;;;;5096003;28;20190;-80
2021/01/24 02:16:52;;;;;;;26.52;17.70;;;1.70;99.90;;;;;;5084120;28;20246;-81
2021/01/24 02:19:24;;;;;;;24.25;16.65;;;1.80;99.90;;;;;;5079772;28;20222;-81
2021/01/24 02:21:54;;;;;;;24.85;17.42;;;1.80;99.90;;;;;;5079209;28;20191;-81
2021/01/24 02:24:23;;;;;;;24.15;16.88;;;1.80;99.90;;;;;;5078939;28;20224;-81
2021/01/24 02:26:58;;;;;;;24.77;18.00;;;1.80;99.90;;;;;;5078354;28;20229;-82
2021/01/24 02:29:37;;;;;;;34.63;17.35;;;1.80;99.90;;;;;;5089352;28;20248;-81
2021/01/24 02:32:06;;;;;;;26.50;17.67;;;1.80;99.90;;;;;;5084988;28;20251;-82
2021/01/24 02:34:36;;;;;;;27.80;18.40;;;1.70;99.90;;;;;;5078135;28;20206;-82
2021/01/24 02:37:04;;;;;;;24.75;17.73;;;1.80;99.90;;;;;;5077927;28;20365;-83
2021/01/24 02:39:33;;;;;;;27.08;18.10;;;1.80;99.90;;;;;;5078004;28;20222;-82
2021/01/24 02:42:00;;;;;;;25.77;16.98;;;1.80;99.90;;;;;;5077801;28;20255;-82
2021/01/24 02:44:27;;;;;;;28.90;18.25;;;1.80;99.90;;;;;;5078668;28;20202;-82
2021/01/24 02:46:56;;;;;;;24.20;16.92;;;1.80;99.90;;;;;;5078103;28;20227;-81
2021/01/24 02:49:24;;;;;;;31.98;18.45;;;1.80;99.90;;;;;;5078177;28;20227;-81
2021/01/24 02:51:52;;;;;;;26.63;17.92;;;1.80;99.90;;;;;;5077986;28;20252;-82
2021/01/24 02:54:20;;;;;;;24.35;17.25;;;1.80;99.90;;;;;;5077837;28;20687;-83
2021/01/24 02:56:46;;;;;;;29.95;19.13;;;1.80;99.90;;;;;;5077862;28;20614;-82
2021/01/24 02:59:13;;;;;;;26.48;18.25;;;1.80;99.90;;;;;;5081314;28;20238;-82
2021/01/24 03:01:39;;;;;;;29.48;17.33;;;1.80;99.90;;;;;;5077904;28;20230;-82
2021/01/24 03:04:06;;;;;;;27.13;17.63;;;1.80;99.90;;;;;;5077023;28;20209;-82
2021/01/24 03:06:33;;;;;;;24.05;17.35;;;1.80;99.90;;;;;;5078384;28;20317;-82
2021/01/24 03:09:00;;;;;;;29.55;17.55;;;1.80;99.90;;;;;;5080757;28;20272;-82
2021/01/24 03:11:27;;;;;;;25.35;17.27;;;1.80;99.90;;;;;;5080698;28;20210;-82
2021/01/24 03:13:59;;;;;;;32.35;17.85;;;1.80;99.90;;;;;;5081040;28;20224;-81
2021/01/24 03:16:27;;;;;;;25.17;16.17;;;1.70;99.90;;;;;;5081420;28;20609;-81
2021/01/24 03:18:54;;;;;;;23.63;16.42;;;1.70;99.90;;;;;;5080526;28;20745;-83
2021/01/24 03:21:24;;;;;;;26.67;17.30;;;1.70;99.90;;;;;;5080985;28;20206;-82
2021/01/24 03:23:52;;;;;;;27.05;17.02;;;1.80;99.90;;;;;;5079955;28;20227;-84
2021/01/24 03:26:19;;;;;;;22.40;15.25;;;1.80;99.90;;;;;;5080953;28;20695;-82
2021/01/24 03:28:45;;;;;;;27.00;17.02;;;1.80;99.90;;;;;;5080211;28;20375;-82
2021/01/24 03:31:12;;;;;;;29.20;16.80;;;1.80;99.90;;;;;;5080404;28;20226;-82
2021/01/24 03:33:39;;;;;;;23.92;15.82;;;1.80;99.90;;;;;;5079901;28;20289;-81
2021/01/24 03:36:07;;;;;;;28.33;17.92;;;1.80;99.90;;;;;;5081023;28;20294;-81
2021/01/24 03:38:33;;;;;;;25.88;15.95;;;1.80;99.90;;;;;;5081252;28;20733;-81
2021/01/24 03:41:00;;;;;;;28.70;19.42;;;1.80;99.90;;;;;;5080528;28;20683;-82
2021/01/24 03:43:27;;;;;;;27.23;16.00;;;1.80;99.90;;;;;;5080830;28;20289;-81
2021/01/24 03:45:53;;;;;;;25.92;17.60;;;1.80;99.90;;;;;;5081396;28;20309;-82
2021/01/24 03:48:20;;;;;;;30.08;17.42;;;1.80;99.90;;;;;;5080654;28;20574;-83
2021/01/24 03:50:46;;;;;;;31.58;18.52;;;1.80;99.90;;;;;;5080170;28;20198;-83
2021/01/24 03:53:12;;;;;;;26.02;17.52;;;1.80;99.90;;;;;;5082530;28;20640;-82
2021/01/24 03:55:41;;;;;;;25.73;16.63;;;1.90;99.90;;;;;;5083244;28;20261;-82
2021/01/24 03:58:09;;;;;;;26.48;16.40;;;1.80;99.90;;;;;;5082918;28;20234;-83
2021/01/24 04:00:35;;;;;;;27.88;16.20;;;1.80;99.90;;;;;;5090986;28;20250;-82
2021/01/24 04:03:01;;;;;;;24.15;15.68;;;1.80;99.90;;;;;;5094945;28;20287;-82
2021/01/24 04:05:28;;;;;;;32.97;18.48;;;1.70;99.90;;;;;;5093346;28;20250;-82
2021/01/24 04:07:54;;;;;;;29.80;17.75;;;1.70;99.90;;;;;;5090307;28;20281;-82
2021/01/24 04:10:20;;;;;;;30.80;18.33;;;1.80;99.90;;;;;;5090382;28;20226;-81
2021/01/24 04:12:47;;;;;;;30.50;16.77;;;1.80;99.90;;;;;;5090417;28;20234;-82
2021/01/24 04:15:16;;;;;;;31.60;18.67;;;1.80;99.90;;;;;;5087347;28;20232;-83
2021/01/24 04:17:42;;;;;;;24.90;15.88;;;1.80;99.90;;;;;;5084987;28;20226;-83
2021/01/24 04:20:09;;;;;;;35.42;19.10;;;1.80;99.90;;;;;;5083084;28;20293;-83
2021/01/24 04:22:35;;;;;;;28.42;17.80;;;1.80;99.90;;;;;;5082273;28;20285;-83
2021/01/24 04:25:02;;;;;;;31.23;17.15;;;1.80;99.90;;;;;;5080964;28;20232;-83
2021/01/24 04:27:28;;;;;;;19.88;14.00;;;1.80;99.90;;;;;;5082211;28;20286;-83
2021/01/24 04:29:54;;;;;;;26.08;15.27;;;1.80;99.90;;;;;;5081558;28;20202;-83
2021/01/24 04:32:22;;;;;;;23.92;15.95;;;1.90;99.90;;;;;;5081563;28;20305;-83
2021/01/24 04:34:48;;;;;;;26.33;16.92;;;1.80;99.90;;;;;;5087389;28;20202;-82
2021/01/24 04:37:15;;;;;;;28.15;15.40;;;1.90;99.90;;;;;;5094095;28;20202;-82
2021/01/24 04:39:41;;;;;;;25.23;17.15;;;1.80;99.90;;;;;;5088559;28;20209;-82
2021/01/24 04:42:08;;;;;;;28.95;16.45;;;1.90;99.90;;;;;;5087048;28;20237;-83
2021/01/24 04:44:35;;;;;;;31.27;17.05;;;1.80;99.90;;;;;;5091011;28;20252;-82
2021/01/24 04:47:02;;;;;;;30.25;16.77;;;1.80;99.90;;;;;;5090964;28;20226;-81
2021/01/24 04:49:30;;;;;;;28.33;16.33;;;1.80;99.90;;;;;;5089755;28;20226;-82
2021/01/24 04:51:57;;;;;;;26.08;15.60;;;1.80;99.90;;;;;;5090134;28;20226;-81
2021/01/24 04:54:24;;;;;;;25.83;16.65;;;1.80;99.90;;;;;;5091198;28;20212;-82
2021/01/24 04:56:51;;;;;;;32.05;16.38;;;1.80;99.90;;;;;;5092294;28;20206;-81
2021/01/24 04:59:17;;;;;;;27.90;16.75;;;1.80;99.90;;;;;;5090122;28;20321;-82
2021/01/24 05:01:44;;;;;;;21.63;14.68;;;1.90;99.90;;;;;;5090624;28;20256;-81
2021/01/24 05:04:11;;;;;;;26.67;17.42;;;1.80;99.90;;;;;;5090323;28;20265;-81
2021/01/24 05:06:38;;;;;;;33.28;16.65;;;1.90;99.90;;;;;;5091081;28;20313;-83
2021/01/24 05:09:05;;;;;;;27.48;14.63;;;1.80;99.90;;;;;;5090266;28;20246;-82
2021/01/24 05:11:32;;;;;;;30.23;16.40;;;1.80;99.90;;;;;;5083353;28;20285;-83
2021/01/24 05:14:14;;;;;;;25.17;14.88;;;1.80;99.90;;;;;;5083783;28;20202;-83
2021/01/24 05:16:41;;;;;;;36.33;17.08;;;1.70;99.90;;;;;;5082356;28;20183;-81
2021/01/24 05:19:09;;;;;;;30.80;16.60;;;1.80;99.90;;;;;;5084094;28;20225;-83
2021/01/24 05:21:36;;;;;;;34.78;16.85;;;1.80;99.90;;;;;;5081600;28;20289;-81
2021/01/24 05:24:04;;;;;;;24.85;14.30;;;1.80;99.90;;;;;;5083439;28;20262;-83
2021/01/24 05:26:30;;;;;;;33.08;17.67;;;1.60;99.90;;;;;;5081629;28;20305;-82
2021/01/24 05:28:57;;;;;;;24.98;15.13;;;1.70;99.90;;;;;;5081271;28;20218;-82
2021/01/24 05:31:23;;;;;;;25.10;16.30;;;1.70;99.90;;;;;;5087184;28;20595;-83
2021/01/24 05:33:49;;;;;;;28.77;14.73;;;1.70;99.90;;;;;;5090519;28;20416;-82
2021/01/24 05:36:16;;;;;;;31.35;16.88;;;1.70;99.90;;;;;;5093249;28;20244;-83
2021/01/24 05:38:42;;;;;;;27.25;15.40;;;1.70;99.90;;;;;;5091121;28;20206;-82
2021/01/24 05:41:11;;;;;;;29.30;17.40;;;1.80;99.90;;;;;;5089280;28;20480;-80
2021/01/24 05:43:39;;;;;;;29.17;16.60;;;1.80;99.90;;;;;;5089516;28;20198;-80
2021/01/24 05:46:07;;;;;;;32.88;17.27;;;1.80;99.90;;;;;;5090730;28;20233;-81
2021/01/24 05:48:35;;;;;;;31.92;17.50;;;1.70;99.90;;;;;;5089543;28;20294;-82
2021/01/24 05:51:02;;;;;;;27.15;16.30;;;1.70;99.90;;;;;;5089105;28;20208;-81
2021/01/24 05:53:37;;;;;;;29.50;15.90;;;1.70;99.90;;;;;;5089839;28;20224;-82
2021/01/24 05:56:09;;;;;;;29.52;16.25;;;1.70;99.90;;;;;;5089550;28;20262;-82
2021/01/24 06:13:21;;;;;;;24.92;14.23;;;1.70;99.90;;;;;;4807539;29;20655;-83
2021/01/24 06:16:53;;;;;;;23.17;13.15;;;1.70;99.90;;;;;;4808847;29;20210;-83
2021/01/24 06:27:16;;;;;;;;;;;;;;;;;;;;;
2021/01/24 06:37:22;;;;;;;;;;;;;;;;;;;;;
2021/01/24 06:40:58;;;;;;;;;;;;;;;;;;;;;
2021/01/24 07:40:18;;;;;;;15.38;10.40;;;1.90;99.90;;;;;;4942045;28;20505;-85
2021/01/24 07:46:34;;;;;;;20.42;12.88;;;1.90;99.90;;;;;;5071405;22;20439;-81
2021/01/24 07:49:00;;;;;;;15.85;10.60;;;2.00;99.90;;;;;;5081825;28;20293;-81
2021/01/24 07:51:27;;;;;;;17.85;10.57;;;2.00;99.90;;;;;;5081752;28;20209;-82
2021/01/24 07:53:54;;;;;;;19.10;11.00;;;2.00;99.90;;;;;;5081753;28;20226;-82
2021/01/24 07:56:21;;;;;;;15.98;10.27;;;2.00;99.90;;;;;;5098347;28;20257;-81
2021/01/24 07:58:49;;;;;;;19.17;12.23;;;1.90;99.90;;;;;;5105735;28;20447;-82
2021/01/24 08:01:16;;;;;;;21.10;11.20;;;2.00;99.90;;;;;;5105888;28;20229;-83
2021/01/24 08:03:43;;;;;;;14.93;10.32;;;2.00;99.90;;;;;;5109277;28;20292;-81
2021/01/24 08:06:11;;;;;;;21.52;11.35;;;1.90;99.90;;;;;;5109375;28;20218;-81
2021/01/24 08:08:38;;;;;;;16.30;10.90;;;1.90;99.90;;;;;;5105324;28;20201;-82
2021/01/24 08:11:05;;;;;;;15.77;11.55;;;2.00;99.90;;;;;;5103894;28;20221;-83
2021/01/24 08:13:33;;;;;;;17.65;11.23;;;2.00;99.90;;;;;;5103292;28;20233;-82
2021/01/24 08:16:01;;;;;;;16.30;10.65;;;2.10;99.90;;;;;;5102898;28;20213;-82
2021/01/24 08:18:28;;;;;;;16.73;10.00;;;2.10;99.90;;;;;;5100948;28;20700;-82
2021/01/24 08:20:55;;;;;;;18.70;10.05;;;2.20;99.90;;;;;;5101316;28;20209;-81
2021/01/24 08:23:24;;;;;;;15.40;9.60;;;2.10;99.90;;;;;;5101092;28;20696;-82
2021/01/24 08:25:51;;;;;;;15.50;10.05;;;2.20;99.90;;;;;;5101182;28;20229;-82
2021/01/24 08:28:18;;;;;;;15.32;10.25;;;2.20;99.90;;;;;;5101481;28;20211;-82
2021/01/24 08:30:46;;;;;;;14.07;9.25;;;2.30;99.90;;;;;;5101746;28;20678;-83
2021/01/24 08:33:13;;;;;;;15.02;9.60;;;2.30;99.90;;;;;;5103692;28;20213;-82
2021/01/24 08:35:40;;;;;;;17.17;9.35;;;2.20;99.90;;;;;;5083008;28;20230;-83
2021/01/24 08:38:07;;;;;;;16.00;9.38;;;2.60;99.90;;;;;;5100524;28;20633;-82
2021/01/24 08:40:34;;;;;;;16.33;9.75;;;3.00;99.90;;;;;;5104573;28;20208;-82
2021/01/24 08:43:02;;;;;;;13.50;9.40;;;2.90;99.90;;;;;;5103477;28;20271;-83
2021/01/24 08:45:29;;;;;;;10.40;8.23;;;2.90;99.90;;;;;;5104577;28;20237;-83
2021/01/24 08:47:57;;;;;;;11.65;7.55;;;3.80;99.90;;;;;;5106834;28;20201;-81
2021/01/24 08:50:24;;;;;;;13.23;8.63;;;3.40;99.90;;;;;;5119070;28;20249;-81
2021/01/24 08:52:54;;;;;;;10.95;8.95;;;2.90;99.90;;;;;;5118355;28;20232;-81
2021/01/24 08:55:21;;;;;;;12.75;8.55;;;2.80;99.90;;;;;;5118005;28;20210;-81
2021/01/24 08:57:47;;;;;;;13.93;8.88;;;3.00;99.90;;;;;;5117327;28;20209;-82
2021/01/24 09:00:15;;;;;;;17.15;10.50;;;2.70;99.90;;;;;;5106109;28;20236;-80
2021/01/24 09:02:41;;;;;;;13.02;8.73;;;2.50;99.90;;;;;;5102378;28;20240;-81
2021/01/24 09:05:10;;;;;;;16.30;8.82;;;2.50;99.90;;;;;;5103130;28;20253;-83
2021/01/24 09:07:38;;;;;;;10.10;7.85;;;2.30;99.90;;;;;;5102665;28;20574;-82
2021/01/24 09:10:15;;;;;;;15.00;9.02;;;2.30;99.90;;;;;;5100967;28;20254;-81
2021/01/24 09:12:43;;;;;;;12.80;7.75;;;2.30;99.90;;;;;;5101040;28;20197;-80
2021/01/24 09:15:10;;;;;;;9.23;7.18;;;2.30;99.90;;;;;;5101481;28;20228;-81
2021/01/24 09:17:36;;;;;;;12.30;8.70;;;2.30;99.90;;;;;;5101148;28;20198;-81
2021/01/24 09:20:05;;;;;;;15.70;10.27;;;2.40;99.90;;;;;;5099179;28;20658;-82
2021/01/24 09:22:32;;;;;;;11.77;8.30;;;2.40;99.90;;;;;;5094369;28;20247;-81
2021/01/24 09:24:59;;;;;;;13.75;8.40;;;2.30;99.90;;;;;;5105226;28;20228;-81
2021/01/24 09:27:25;;;;;;;11.15;8.10;;;2.20;99.90;;;;;;5105230;28;20232;-81
2021/01/24 09:29:51;;;;;;;11.88;9.20;;;2.30;99.90;;;;;;5104863;28;20208;-81
2021/01/24 09:32:18;;;;;;;12.43;8.88;;;2.40;99.90;;;;;;5109019;28;20727;-81
2021/01/24 09:34:44;;;;;;;15.52;8.55;;;2.30;99.90;;;;;;5108435;28;20269;-81
2021/01/24 09:37:10;;;;;;;12.18;9.20;;;2.40;99.90;;;;;;5108384;28;20209;-80
2021/01/24 09:39:38;;;;;;;12.15;7.80;;;2.40;99.90;;;;;;5107373;28;20292;-81
2021/01/24 09:42:05;;;;;;;13.05;7.70;;;2.50;99.90;;;;;;5107875;28;20292;-80
2021/01/24 09:44:32;;;;;;;16.10;9.50;;;2.50;99.90;;;;;;5107847;28;20212;-81
2021/01/24 09:46:58;;;;;;;13.77;8.50;;;2.60;99.90;;;;;;5106272;28;20224;-81
2021/01/24 09:49:25;;;;;;;10.85;7.35;;;2.50;99.90;;;;;;5106389;28;20705;-81
2021/01/24 09:51:52;;;;;;;15.95;8.65;;;2.60;99.90;;;;;;5106618;28;20202;-82
2021/01/24 09:54:18;;;;;;;9.82;8.57;;;2.60;99.90;;;;;;5105564;28;20287;-82
2021/01/24 09:56:47;;;;;;;12.32;8.73;;;2.60;99.90;;;;;;5101910;28;20221;-82
2021/01/24 09:59:24;;;;;;;13.88;8.88;;;2.70;99.90;;;;;;5101899;28;20210;-82
2021/01/24 10:01:54;;;;;;;11.05;8.23;;;2.70;99.90;;;;;;5096842;28;20669;-81
2021/01/24 10:04:20;;;;;;;12.43;8.40;;;2.70;99.90;;;;;;5099719;28;20213;-82
2021/01/24 10:06:47;;;;;;;13.00;9.15;;;2.60;99.90;;;;;;5100665;28;20755;-82
2021/01/24 10:09:21;;;;;;;16.20;9.35;;;2.60;99.90;;;;;;5100465;28;20228;-81
2021/01/24 10:11:51;;;;;;;16.30;9.10;;;2.60;99.90;;;;;;5102432;28;20619;-81
2021/01/24 10:14:49;;;;;;;14.10;9.50;;;2.70;99.90;;;;;;5103146;28;20206;-82
2021/01/24 10:17:18;;;;;;;17.98;10.00;;;2.70;99.90;;;;;;5108644;28;20186;-81
2021/01/24 10:19:44;;;;;;;12.23;8.73;;;2.70;99.90;;;;;;5115606;28;20276;-81
2021/01/24 10:22:11;;;;;;;14.70;9.13;;;2.70;99.90;;;;;;5107554;28;20217;-81
2021/01/24 10:24:48;;;;;;;12.60;9.60;;;2.70;99.90;;;;;;5104451;28;20206;-81
2021/01/24 10:27:18;;;;;;;11.82;7.40;;;2.60;99.90;;;;;;5104510;28;20209;-81
2021/01/24 10:29:45;;;;;;;14.98;8.35;;;2.70;99.90;;;;;;5103031;28;20186;-81
2021/01/24 10:32:14;;;;;;;10.40;7.38;;;2.70;99.90;;;;;;5103312;28;20197;-81
2021/01/24 10:34:42;;;;;;;11.77;8.60;;;2.60;99.90;;;;;;5104883;28;20198;-82
2021/01/24 10:37:09;;;;;;;12.05;8.55;;;2.60;99.90;;;;;;5110076;28;20208;-82
2021/01/24 10:39:37;;;;;;;9.63;7.95;;;2.60;99.90;;;;;;5116408;28;20205;-81
2021/01/24 10:42:04;;;;;;;13.13;8.68;;;2.60;99.90;;;;;;5116544;28;20190;-81
2021/01/24 10:44:33;;;;;;;14.18;9.75;;;2.70;99.90;;;;;;5097860;28;20202;-81
2021/01/24 10:46:59;;;;;;;10.25;8.85;;;2.50;99.90;;;;;;5105917;28;20221;-81
2021/01/24 10:49:26;;;;;;;13.13;8.90;;;2.60;99.90;;;;;;5113433;28;20259;-81
2021/01/24 10:51:52;;;;;;;12.50;9.15;;;2.60;99.90;;;;;;5105509;28;20681;-82
2021/01/24 10:54:20;;;;;;;11.30;8.15;;;2.60;99.90;;;;;;5102451;28;20202;-81
2021/01/24 10:56:46;;;;;;;14.13;9.07;;;2.60;99.90;;;;;;5103876;28;20233;-82
2021/01/24 10:59:13;;;;;;;12.52;8.63;;;2.50;99.90;;;;;;5103603;28;20229;-82
2021/01/24 11:01:40;;;;;;;34.28;22.80;;;2.50;99.90;;;;;;5102457;28;20566;-82
2021/01/24 11:04:06;;;;;;;11.57;8.27;;;2.60;99.90;;;;;;5103392;28;20206;-82
2021/01/24 11:06:33;;;;;;;16.42;9.88;;;2.60;99.90;;;;;;5102063;28;20636;-81
2021/01/24 11:08:59;;;;;;;9.93;7.53;;;2.60;99.90;;;;;;5101919;28;20198;-82
2021/01/24 11:11:25;;;;;;;11.25;9.13;;;2.60;99.90;;;;;;5102993;28;20237;-81
2021/01/24 11:13:52;;;;;;;10.57;7.90;;;2.60;99.90;;;;;;5102988;28;20212;-81
2021/01/24 11:16:18;;;;;;;12.15;9.07;;;2.60;99.90;;;;;;5104602;28;20300;-82
2021/01/24 11:18:45;;;;;;;11.80;7.55;;;2.50;99.90;;;;;;5103697;28;20227;-82
2021/01/24 11:21:12;;;;;;;10.48;8.90;;;2.50;99.90;;;;;;5109635;28;20233;-81
2021/01/24 11:23:38;;;;;;;10.40;8.63;;;2.40;99.90;;;;;;5111832;28;20206;-80
2021/01/24 11:26:04;;;;;;;10.35;7.50;;;2.50;99.90;;;;;;5109159;28;20256;-81
2021/01/24 11:28:31;;;;;;;11.85;8.65;;;2.40;99.90;;;;;;5095294;28;20218;-82
2021/01/24 11:30:57;;;;;;;11.30;7.82;;;2.40;99.90;;;;;;5103347;28;20201;-82
2021/01/24 11:33:23;;;;;;;12.00;7.88;;;2.40;99.90;;;;;;5101150;28;20221;-82
2021/01/24 11:35:51;;;;;;;10.32;8.80;;;2.40;99.90;;;;;;5101593;28;20225;-81
2021/01/24 11:38:17;;;;;;;13.23;9.40;;;2.40;99.90;;;;;;5101864;28;20202;-82
2021/01/24 11:40:44;;;;;;;14.48;9.07;;;2.40;99.90;;;;;;5101338;28;20240;-80
2021/01/24 11:43:10;;;;;;;11.30;8.55;;;2.40;99.90;;;;;;5101168;28;20298;-81
2021/01/24 11:45:37;;;;;;;11.20;8.55;;;2.40;99.90;;;;;;5101665;28;20308;-80
2021/01/24 11:48:03;;;;;;;9.27;7.25;;;2.40;99.90;;;;;;5101396;28;20274;-81
2021/01/24 11:50:30;;;;;;;11.80;8.77;;;2.40;99.90;;;;;;5101292;28;20198;-81
2021/01/24 11:52:57;;;;;;;10.88;8.70;;;2.40;99.90;;;;;;5101038;28;20202;-80
2021/01/24 11:55:23;;;;;;;12.27;8.73;;;2.30;99.90;;;;;;5103106;28;20252;-82
2021/01/24 11:57:50;;;;;;;11.65;8.50;;;2.30;99.90;;;;;;5102938;28;20281;-81
2021/01/24 12:00:17;;;;;;;12.25;8.60;;;2.40;99.90;;;;;;5101375;28;20240;-81
2021/01/24 12:02:43;;;;;;;14.07;9.65;;;2.40;99.90;;;;;;5101385;28;20205;-81
2021/01/24 12:05:11;;;;;;;11.98;9.40;;;2.30;99.90;;;;;;5101234;28;20256;-80
2021/01/24 12:07:37;;;;;;;15.68;10.15;;;2.30;99.90;;;;;;5102567;28;20214;-83
2021/01/24 12:10:05;;;;;;;12.95;9.52;;;2.40;99.90;;;;;;5104455;28;20228;-84
2021/01/24 12:12:32;;;;;;;13.02;9.35;;;2.40;99.90;;;;;;5103330;28;20206;-85
2021/01/24 12:15:04;;;;;;;11.10;8.13;;;2.30;99.90;;;;;;5103681;28;20222;-85
2021/01/24 12:17:33;;;;;;;17.23;9.70;;;2.20;99.90;;;;;;5093824;28;20192;-84
2021/01/24 12:20:08;;;;;;;15.30;11.23;;;2.30;99.90;;;;;;5103121;28;20209;-85
2021/01/24 12:22:52;;;;;;;17.52;11.65;;;2.30;99.90;;;;;;5103663;28;20216;-84
2021/01/24 12:25:20;;;;;;;16.67;10.30;;;2.30;99.90;;;;;;5101851;28;20232;-82
2021/01/24 12:27:46;;;;;;;14.57;9.30;;;2.30;99.90;;;;;;5099904;28;20694;-81
2021/01/24 12:30:14;;;;;;;12.20;9.40;;;2.30;99.90;;;;;;5100666;28;20194;-82
2021/01/24 12:32:41;;;;;;;12.20;8.35;;;2.30;99.90;;;;;;5101628;28;20340;-81
2021/01/24 12:35:08;;;;;;;17.40;10.07;;;2.20;99.90;;;;;;5101637;28;20292;-80
2021/01/24 12:37:35;;;;;;;11.50;8.98;;;2.20;99.90;;;;;;5098917;28;20684;-80
2021/01/24 12:40:01;;;;;;;17.08;9.65;;;2.30;99.90;;;;;;5100094;28;20225;-81
2021/01/24 12:42:29;;;;;;;12.45;8.93;;;2.40;99.90;;;;;;5100349;28;20205;-81
2021/01/24 12:44:57;;;;;;;13.73;8.52;;;2.40;99.90;;;;;;5100109;28;20265;-81
2021/01/24 12:47:23;;;;;;;13.57;10.50;;;2.40;99.90;;;;;;5100243;28;20566;-80
2021/01/24 12:49:50;;;;;;;12.73;9.30;;;2.40;99.90;;;;;;5101351;28;20197;-80
2021/01/24 12:52:16;;;;;;;14.38;10.30;;;2.40;99.90;;;;;;5101321;28;20208;-80
2021/01/24 12:54:43;;;;;;;13.65;10.40;;;2.30;99.90;;;;;;5101059;28;20276;-81
2021/01/24 12:57:09;;;;;;;11.77;9.07;;;2.40;99.90;;;;;;5099800;28;20193;-80
2021/01/24 12:59:36;;;;;;;16.92;11.95;;;2.40;99.90;;;;;;5100072;28;20256;-80
2021/01/24 13:02:04;;;;;;;16.10;11.65;;;2.40;99.90;;;;;;5100044;28;20296;-80
2021/01/24 13:04:31;;;;;;;15.93;11.15;;;2.40;99.90;;;;;;5100822;28;20206;-82
2021/01/24 13:06:57;;;;;;;15.57;10.05;;;2.50;99.90;;;;;;5100884;28;20245;-79
2021/01/24 13:09:24;;;;;;;15.32;10.82;;;2.50;99.90;;;;;;5101292;28;20251;-80
2021/01/24 13:11:50;;;;;;;15.10;10.70;;;2.60;99.90;;;;;;5101637;28;20268;-81
2021/01/24 13:14:17;;;;;;;21.23;11.40;;;2.50;99.90;;;;;;5101505;28;20255;-81
2021/01/24 13:16:44;;;;;;;22.05;14.07;;;2.50;99.90;;;;;;5103301;28;20297;-81
2021/01/24 13:19:13;;;;;;;20.52;13.98;;;2.50;99.90;;;;;;5106459;28;20237;-80
2021/01/24 13:21:40;;;;;;;18.48;11.85;;;2.50;99.90;;;;;;5112016;28;20236;-80
2021/01/24 13:24:07;;;;;;;17.85;11.77;;;2.40;99.90;;;;;;5111061;28;20232;-79
2021/01/24 13:26:33;;;;;;;16.02;11.40;;;2.30;99.90;;;;;;5109941;28;20253;-79
2021/01/24 13:29:00;;;;;;;17.08;12.35;;;2.40;99.90;;;;;;5111384;28;20265;-79
2021/01/24 13:31:26;;;;;;;16.95;11.95;;;2.40;99.90;;;;;;5109135;28;20209;-80
2021/01/24 13:33:53;;;;;;;16.52;11.90;;;2.30;99.90;;;;;;5109321;28;20229;-79
2021/01/24 13:36:19;;;;;;;16.50;11.85;;;2.30;99.90;;;;;;5111504;28;20249;-80
2021/01/24 13:38:50;;;;;;;18.50;12.98;;;2.30;99.90;;;;;;5111963;28;20237;-81
2021/01/24 13:41:17;;;;;;;21.38;12.80;;;2.50;99.90;;;;;;5115974;28;20212;-80
2021/01/24 13:43:44;;;;;;;19.45;12.45;;;2.50;99.90;;;;;;5113303;28;20255;-80
2021/01/24 13:46:19;;;;;;;16.52;11.68;;;2.50;99.90;;;;;;5108767;22;20218;-82
2021/01/24 13:49:03;;;;;;;16.77;11.63;;;2.50;99.90;;;;;;5075500;28;20197;-82
2021/01/24 13:51:37;;;;;;;20.73;13.68;;;2.50;99.90;;;;;;5083543;28;20249;-83
2021/01/24 13:54:16;;;;;;;15.52;11.50;;;2.50;99.90;;;;;;5092935;28;20225;-81
2021/01/24 13:56:45;;;;;;;18.10;12.48;;;2.50;99.90;;;;;;5048893;28;20232;-84
2021/01/24 14:00:14;;;;;;;;;;;;;;;;;;;;;
2021/01/24 14:03:06;;;;;;;23.83;14.27;;;2.30;99.90;;;;;;5078778;28;20640;-83
2021/01/24 14:06:22;;;;;;;19.77;13.43;;;2.40;99.90;;;;;;4957351;28;20226;-83
2021/01/24 14:09:18;;;;;;;18.35;12.70;;;2.40;99.90;;;;;;4998782;28;20194;-83
2021/01/24 14:15:02;;;;;;;21.58;14.88;;;2.40;99.90;;;;;;5077032;28;20229;-82
2021/01/24 14:17:45;;;;;;;20.83;14.20;;;2.40;99.90;;;;;;5080247;28;20586;-83
2021/01/24 14:21:04;;;;;;;25.17;14.80;;;2.30;99.90;;;;;;5080799;28;20206;-83
2021/01/24 14:23:50;;;;;;;20.08;16.17;;;2.40;99.90;;;;;;5080127;28;20206;-82
2021/01/24 14:26:35;;;;;;;30.40;17.95;;;2.20;99.90;;;;;;5075119;28;20648;-82
2021/01/24 14:29:14;;;;;;;29.50;17.27;;;2.20;99.90;;;;;;5065545;28;20198;-82